createdAt,value
2022-08-26T00:00:56.324Z,9.26
2022-08-26T00:03:27.572Z,9.14
2022-08-26T00:05:55.425Z,9.17
2022-08-26T00:08:25.397Z,9.18
2022-08-26T00:10:55.410Z,9.15
2022-08-26T00:13:23.128Z,9.09
2022-08-26T00:15:55.866Z,9.14
2022-08-26T00:18:24.966Z,9.20
2022-08-26T00:20:53.572Z,9.27
2022-08-26T00:23:25.678Z,9.29
2022-08-26T00:25:56.839Z,9.31
2022-08-26T00:28:28.659Z,9.64
2022-08-26T00:30:56.395Z,9.57
2022-08-26T00:33:25.462Z,9.72
2022-08-26T00:35:55.048Z,9.79
2022-08-26T00:38:26.072Z,10.01
2022-08-26T00:40:55.216Z,10.05
2022-08-26T00:43:25.700Z,10.02
2022-08-26T00:46:02.290Z,10.06
2022-08-26T00:48:34.379Z,10.23
2022-08-26T00:51:07.027Z,10.43
2022-08-26T00:53:37.758Z,10.39
2022-08-26T00:56:13.818Z,10.53
2022-08-26T00:58:45.002Z,10.44
2022-08-26T01:01:13.086Z,10.48
2022-08-26T01:03:43.122Z,10.57
2022-08-26T01:06:13.218Z,10.47
2022-08-26T01:08:43.210Z,10.57
2022-08-26T01:11:11.204Z,10.54
2022-08-26T01:13:41.121Z,10.46
2022-08-26T01:16:15.964Z,10.74
2022-08-26T01:18:47.332Z,10.76
2022-08-26T01:21:20.183Z,10.87
2022-08-26T01:23:57.372Z,10.71
2022-08-26T01:26:27.070Z,10.55
2022-08-26T01:28:56.059Z,10.47
2022-08-26T01:31:27.665Z,10.46
2022-08-26T01:34:02.278Z,10.38
2022-08-26T01:36:32.368Z,10.21
2022-08-26T01:39:01.386Z,10.13
2022-08-26T01:41:38.334Z,10.19
2022-08-26T01:44:07.810Z,10.30
2022-08-26T01:46:42.044Z,10.21
2022-08-26T01:49:09.880Z,10.01
2022-08-26T01:51:39.782Z,9.91
2022-08-26T01:54:13.708Z,9.91
2022-08-26T01:56:42.162Z,9.76
2022-08-26T01:59:12.385Z,9.73
2022-08-26T02:01:45.498Z,9.63
2022-08-26T02:04:16.849Z,9.66
2022-08-26T02:06:48.928Z,9.64
2022-08-26T02:09:19.937Z,9.48
2022-08-26T02:11:52.735Z,9.58
2022-08-26T02:14:22.639Z,9.46
2022-08-26T02:16:55.802Z,9.46
2022-08-26T02:19:27.658Z,9.45
2022-08-26T02:22:01.173Z,9.39
2022-08-26T02:24:31.619Z,9.49
2022-08-26T02:27:01.681Z,9.56
2022-08-26T02:29:34.767Z,9.66
2022-08-26T02:32:04.622Z,9.65
2022-08-26T02:34:34.892Z,9.70
2022-08-26T02:37:06.171Z,9.76
2022-08-26T02:39:37.974Z,10.00
2022-08-26T02:42:06.045Z,10.12
2022-08-26T02:44:36.048Z,10.28
2022-08-26T02:47:06.200Z,10.44
2022-08-26T02:49:33.856Z,10.18
2022-08-26T02:52:03.553Z,10.04
2022-08-26T02:54:33.416Z,9.95
2022-08-26T02:57:02.688Z,9.93
2022-08-26T02:59:33.375Z,9.88
2022-08-26T03:02:05.472Z,9.90
2022-08-26T03:04:33.577Z,9.87
2022-08-26T03:07:01.183Z,10.04
2022-08-26T03:09:33.167Z,9.95
2022-08-26T03:12:02.222Z,9.81
2022-08-26T03:14:30.003Z,9.95
2022-08-26T03:17:02.360Z,9.96
2022-08-26T03:19:32.178Z,9.81
2022-08-26T03:22:05.916Z,9.99
2022-08-26T03:24:33.545Z,9.79
2022-08-26T03:27:06.014Z,9.74
2022-08-26T03:29:57.820Z,9.74
2022-08-26T03:32:26.978Z,9.74
2022-08-26T03:34:57.920Z,9.62
2022-08-26T03:37:27.777Z,9.64
2022-08-26T03:39:55.478Z,9.58
2022-08-26T03:42:26.267Z,9.43
2022-08-26T03:44:55.785Z,9.57
2022-08-26T03:47:23.488Z,9.35
2022-08-26T03:49:53.759Z,9.22
2022-08-26T03:52:23.321Z,9.38
2022-08-26T03:54:50.986Z,9.41
2022-08-26T03:57:20.889Z,9.53
2022-08-26T03:59:53.303Z,9.40
2022-08-26T04:02:23.699Z,9.34
2022-08-26T04:04:53.420Z,9.44
2022-08-26T04:07:21.027Z,9.60
2022-08-26T04:09:50.898Z,9.75
2022-08-26T04:12:20.400Z,9.96
2022-08-26T04:14:48.116Z,10.15
2022-08-26T04:17:19.220Z,10.26
2022-08-26T04:19:57.102Z,10.37
2022-08-26T04:22:26.912Z,10.60
2022-08-26T04:24:57.520Z,10.76
2022-08-26T04:27:26.162Z,10.94
2022-08-26T04:29:55.340Z,10.98
2022-08-26T04:32:24.719Z,11.10
2022-08-26T04:34:54.783Z,11.12
2022-08-26T04:37:25.302Z,11.21
2022-08-26T04:39:53.533Z,11.26
2022-08-26T04:42:25.843Z,11.31
2022-08-26T04:44:56.472Z,11.40
2022-08-26T04:47:30.342Z,11.73
2022-08-26T04:50:02.251Z,11.90
2022-08-26T04:52:31.013Z,12.03
2022-08-26T04:54:58.902Z,12.27
2022-08-26T04:57:29.148Z,12.70
2022-08-26T04:59:59.840Z,12.89
2022-08-26T05:02:29.093Z,13.18
2022-08-26T05:05:01.048Z,14.05
2022-08-26T05:07:28.916Z,15.31
2022-08-26T05:09:56.795Z,16.25
2022-08-26T05:12:30.133Z,16.25
2022-08-26T05:14:58.422Z,17.75
2022-08-26T05:17:28.342Z,17.96
2022-08-26T05:20:00.352Z,18.08
2022-08-26T05:22:28.173Z,18.31
2022-08-26T05:24:55.954Z,18.32
2022-08-26T05:27:28.183Z,17.62
2022-08-26T05:29:58.351Z,17.13
2022-08-26T05:32:26.206Z,16.77
2022-08-26T05:35:00.714Z,16.42
2022-08-26T05:37:30.551Z,16.27
2022-08-26T05:39:58.917Z,16.08
2022-08-26T05:42:29.198Z,15.81
2022-08-26T05:44:58.984Z,15.51
2022-08-26T05:47:28.148Z,15.10
2022-08-26T05:49:59.331Z,14.96
2022-08-26T05:52:31.559Z,15.32
2022-08-26T05:54:59.579Z,15.75
2022-08-26T05:57:29.246Z,16.01
2022-08-26T05:59:59.879Z,16.34
2022-08-26T06:02:28.982Z,16.62
2022-08-26T06:04:58.345Z,17.10
2022-08-26T06:07:54.116Z,16.97
2022-08-26T06:10:32.805Z,16.93
2022-08-26T06:13:11.843Z,16.99
2022-08-26T06:15:45.733Z,17.22
2022-08-26T06:18:16.322Z,17.69
2022-08-26T06:20:57.012Z,18.12
2022-08-26T06:23:43.114Z,18.29
2022-08-26T06:26:11.572Z,18.31
2022-08-26T06:28:43.608Z,18.33
2022-08-26T06:31:16.088Z,18.42
2022-08-26T06:33:46.494Z,18.97
2022-08-26T06:36:23.846Z,19.37
2022-08-26T06:38:55.702Z,19.56
2022-08-26T06:41:24.167Z,19.48
2022-08-26T06:43:54.893Z,19.62
2022-08-26T06:46:23.201Z,19.79
2022-08-26T06:48:54.358Z,19.78
2022-08-26T06:51:29.955Z,20.08
2022-08-26T06:54:00.563Z,20.42
2022-08-26T06:56:29.481Z,20.26
2022-08-26T06:59:01.563Z,19.96
2022-08-26T07:01:32.004Z,19.64
2022-08-26T07:04:10.368Z,19.91
2022-08-26T07:06:43.137Z,20.34
2022-08-26T07:09:13.926Z,20.76
2022-08-26T07:11:42.507Z,20.80
2022-08-26T07:14:10.280Z,20.80
2022-08-26T07:16:43.012Z,20.94
2022-08-26T07:19:11.626Z,21.03
2022-08-26T07:21:46.012Z,20.99
2022-08-26T07:24:15.259Z,20.77
2022-08-26T07:26:43.284Z,20.72
2022-08-26T07:29:16.688Z,20.97
2022-08-26T07:31:45.268Z,20.69
2022-08-26T07:34:16.362Z,20.54
2022-08-26T07:36:49.012Z,20.55
2022-08-26T07:39:19.167Z,20.61
2022-08-26T07:41:47.821Z,20.67
2022-08-26T07:44:17.152Z,20.65
2022-08-26T07:46:52.302Z,20.71
2022-08-26T07:49:21.830Z,20.83
2022-08-26T07:51:53.595Z,20.85
2022-08-26T07:54:24.636Z,20.90
2022-08-26T07:56:55.869Z,21.17
2022-08-26T07:59:28.457Z,21.30
2022-08-26T08:01:59.178Z,21.13
2022-08-26T08:04:29.802Z,21.17
2022-08-26T08:06:59.002Z,20.98
2022-08-26T08:09:29.065Z,21.01
2022-08-26T08:11:59.004Z,21.38
2022-08-26T08:14:28.770Z,21.77
2022-08-26T08:16:58.984Z,21.66
2022-08-26T08:19:36.539Z,22.17
2022-08-26T08:22:17.153Z,22.70
2022-08-26T08:24:49.903Z,22.76
2022-08-26T08:27:23.990Z,22.37
2022-08-26T08:29:56.087Z,22.05
2022-08-26T08:32:26.300Z,22.24
2022-08-26T08:34:53.880Z,22.15
2022-08-26T08:37:23.208Z,22.17
2022-08-26T08:40:01.173Z,21.81
2022-08-26T08:42:39.685Z,21.61
2022-08-26T08:45:11.992Z,21.40
2022-08-26T08:47:44.036Z,21.29
2022-08-26T08:50:22.843Z,21.30
2022-08-26T08:52:57.476Z,21.87
2022-08-26T08:55:37.364Z,21.97
2022-08-26T08:58:12.270Z,21.95
2022-08-26T09:00:52.690Z,21.81
2022-08-26T09:03:38.042Z,21.80
2022-08-26T09:06:17.055Z,22.05
2022-08-26T09:08:50.710Z,22.35
2022-08-26T09:11:20.953Z,22.58
2022-08-26T09:13:51.154Z,22.66
2022-08-26T09:16:21.599Z,22.84
2022-08-26T09:19:04.789Z,22.72
2022-08-26T09:21:33.588Z,22.88
2022-08-26T09:24:05.160Z,23.02
2022-08-26T09:26:48.251Z,22.92
2022-08-26T09:29:24.063Z,23.61
2022-08-26T09:31:54.818Z,23.80
2022-08-26T09:34:28.300Z,23.40
2022-08-26T09:36:58.203Z,22.66
2022-08-26T09:39:33.697Z,22.60
2022-08-26T09:42:11.426Z,22.28
2022-08-26T09:44:59.451Z,22.17
2022-08-26T09:47:32.365Z,21.87
2022-08-26T09:50:12.390Z,22.15
2022-08-26T09:52:42.843Z,22.30
2022-08-26T09:55:17.120Z,22.59
2022-08-26T09:57:51.103Z,22.73
2022-08-26T10:00:34.128Z,22.27
2022-08-26T10:03:06.327Z,22.26
2022-08-26T10:05:42.384Z,22.66
2022-08-26T10:08:24.544Z,22.83
2022-08-26T10:10:57.998Z,22.24
2022-08-26T10:13:35.150Z,22.27
2022-08-26T10:16:12.053Z,22.56
2022-08-26T10:18:43.662Z,22.76
2022-08-26T10:21:17.912Z,22.92
2022-08-26T10:23:52.564Z,23.04
2022-08-26T10:26:28.990Z,23.29
2022-08-26T10:29:05.655Z,23.11
2022-08-26T10:31:44.200Z,23.06
2022-08-26T10:34:16.361Z,23.30
2022-08-26T10:37:16.016Z,23.51
2022-08-26T10:39:46.216Z,23.65
2022-08-26T10:42:24.617Z,23.51
2022-08-26T10:44:58.631Z,22.95
2022-08-26T10:47:34.191Z,22.81
2022-08-26T10:50:05.227Z,22.85
2022-08-26T10:52:50.092Z,22.52
2022-08-26T10:55:26.346Z,22.42
2022-08-26T10:58:05.027Z,22.68
2022-08-26T11:00:58.356Z,22.95
2022-08-26T11:03:36.710Z,23.17
2022-08-26T11:06:23.290Z,23.31
2022-08-26T11:08:54.809Z,23.48
2022-08-26T11:11:48.010Z,23.16
2022-08-26T11:14:46.150Z,23.07
2022-08-26T11:18:05.354Z,23.55
2022-08-26T11:20:39.301Z,23.88
2022-08-26T11:23:50.811Z,24.09
2022-08-26T11:26:55.674Z,24.14
2022-08-26T11:29:59.503Z,23.92
2022-08-26T11:32:48.693Z,23.57
2022-08-26T11:35:50.711Z,23.88
2022-08-26T11:38:28.165Z,23.76
2022-08-26T11:40:59.560Z,23.96
2022-08-26T11:43:34.706Z,24.17
2022-08-26T11:46:09.217Z,24.24
2022-08-26T11:48:41.151Z,23.97
2022-08-26T11:51:13.420Z,23.40
2022-08-26T11:53:47.172Z,23.65
2022-08-26T11:56:26.427Z,23.67
2022-08-26T11:59:01.292Z,23.37
2022-08-26T12:01:37.616Z,23.71
2022-08-26T12:04:09.427Z,23.60
2022-08-26T12:06:45.253Z,23.57
2022-08-26T12:09:21.612Z,23.58
2022-08-26T12:11:49.733Z,23.58
2022-08-26T12:14:21.046Z,23.68
2022-08-26T12:16:50.553Z,23.82
2022-08-26T12:19:29.458Z,24.04
2022-08-26T12:22:05.268Z,23.97
2022-08-26T12:24:33.406Z,23.86
2022-08-26T12:27:18.471Z,23.86
2022-08-26T12:30:02.688Z,23.17
2022-08-26T12:32:32.609Z,23.46
2022-08-26T12:37:38.514Z,23.70
2022-08-26T12:40:34.333Z,23.48
2022-08-26T12:43:04.719Z,23.72
2022-08-26T12:45:37.497Z,23.71
2022-08-26T12:48:11.159Z,23.79
2022-08-26T12:50:48.215Z,23.85
2022-08-26T12:53:24.337Z,23.34
2022-08-26T12:55:56.781Z,23.21
2022-08-26T12:58:31.155Z,23.00
2022-08-26T13:01:22.683Z,23.16
2022-08-26T13:03:54.381Z,23.20
2022-08-26T13:06:27.398Z,23.50
2022-08-26T13:08:57.911Z,23.61
2022-08-26T13:11:30.071Z,23.53
2022-08-26T13:14:02.581Z,23.54
2022-08-26T13:16:39.745Z,23.26
2022-08-26T13:19:13.698Z,23.21
2022-08-26T13:21:47.921Z,23.13
2022-08-26T13:24:20.057Z,23.14
2022-08-26T13:26:51.295Z,23.04
2022-08-26T13:32:06.789Z,23.24
2022-08-26T13:34:38.034Z,23.22
2022-08-26T13:37:10.188Z,23.22
2022-08-26T13:39:38.313Z,23.24
2022-08-26T13:42:06.359Z,23.23
2022-08-26T13:44:41.019Z,23.12
2022-08-26T13:47:08.946Z,23.20
2022-08-26T13:49:40.435Z,23.25
2022-08-26T13:52:10.572Z,23.17
2022-08-26T13:54:38.356Z,23.07
2022-08-26T13:57:08.593Z,23.03
2022-08-26T13:59:36.547Z,23.17
2022-08-26T14:02:04.861Z,23.22
2022-08-26T14:04:35.059Z,23.10
2022-08-26T14:07:06.705Z,23.04
2022-08-26T14:09:38.317Z,22.92
2022-08-26T14:12:06.879Z,22.97
2022-08-26T14:14:34.820Z,22.61
2022-08-26T14:17:02.979Z,22.74
2022-08-26T14:19:31.833Z,22.68
2022-08-26T14:22:01.566Z,22.58
2022-08-26T14:24:31.326Z,22.43
2022-08-26T14:26:59.522Z,22.45
2022-08-26T14:29:29.527Z,22.42
2022-08-26T14:32:03.215Z,22.31
2022-08-26T14:34:37.158Z,22.26
2022-08-26T14:37:07.793Z,22.27
2022-08-26T14:39:38.183Z,22.23
2022-08-26T14:42:06.728Z,22.33
2022-08-26T14:44:35.256Z,22.45
2022-08-26T14:47:06.690Z,22.29
2022-08-26T14:49:36.888Z,22.34
2022-08-26T14:52:05.030Z,22.40
2022-08-26T14:54:31.925Z,22.35
2022-08-26T14:57:06.937Z,22.15
2022-08-26T14:59:37.387Z,22.01
2022-08-26T15:02:06.697Z,22.00
2022-08-26T15:04:37.998Z,21.97
2022-08-26T15:07:06.533Z,21.90
2022-08-26T15:09:37.437Z,21.93
2022-08-26T15:12:07.456Z,21.77
2022-08-26T15:14:35.366Z,21.91
2022-08-26T15:17:03.218Z,21.83
2022-08-26T15:19:31.328Z,21.73
2022-08-26T15:21:59.256Z,21.65
2022-08-26T15:24:28.975Z,21.42
2022-08-26T15:26:57.073Z,21.41
2022-08-26T15:29:26.458Z,21.53
2022-08-26T15:31:57.193Z,21.49
2022-08-26T15:34:27.880Z,21.43
2022-08-26T15:36:55.735Z,21.30
2022-08-26T15:39:23.578Z,21.31
2022-08-26T15:41:51.836Z,21.36
2022-08-26T15:44:19.863Z,21.24
2022-08-26T15:46:54.241Z,21.09
2022-08-26T15:49:29.509Z,21.06
2022-08-26T15:51:57.454Z,21.02
2022-08-26T15:54:25.585Z,20.94
2022-08-26T15:56:54.034Z,20.98
2022-08-26T15:59:23.094Z,20.92
2022-08-26T16:01:53.394Z,20.93
2022-08-26T16:04:25.830Z,20.85
2022-08-26T16:06:55.307Z,20.95
2022-08-26T16:09:29.443Z,20.92
2022-08-26T16:11:58.536Z,20.85
2022-08-26T16:14:27.205Z,20.76
2022-08-26T16:16:59.639Z,20.69
2022-08-26T16:19:29.687Z,20.70
2022-08-26T16:21:57.580Z,20.68
2022-08-26T16:24:30.552Z,20.58
2022-08-26T16:26:59.070Z,20.72
2022-08-26T16:29:27.158Z,20.72
2022-08-26T16:31:58.498Z,20.66
2022-08-26T16:34:28.507Z,20.66
2022-08-26T16:36:56.331Z,20.62
2022-08-26T16:39:26.232Z,20.48
2022-08-26T16:41:56.399Z,20.52
2022-08-26T16:44:24.059Z,20.51
2022-08-26T16:47:01.569Z,20.42
2022-08-26T16:49:29.636Z,20.44
2022-08-26T16:51:57.520Z,20.29
2022-08-26T16:54:27.496Z,20.41
2022-08-26T16:56:57.907Z,20.32
2022-08-26T16:59:26.119Z,20.26
2022-08-26T17:01:56.158Z,20.09
2022-08-26T17:04:27.459Z,20.07
2022-08-26T17:06:55.843Z,20.05
2022-08-26T17:09:26.131Z,19.91
2022-08-26T17:11:56.080Z,19.91
2022-08-26T17:14:24.223Z,19.86
2022-08-26T17:16:55.578Z,19.76
2022-08-26T17:19:27.366Z,19.58
2022-08-26T17:21:55.255Z,19.56
2022-08-26T17:24:25.120Z,19.57
2022-08-26T17:26:55.721Z,19.59
2022-08-26T17:29:23.611Z,19.51
2022-08-26T17:31:53.452Z,19.57
2022-08-26T17:34:24.076Z,19.51
2022-08-26T17:36:53.565Z,19.51
2022-08-26T17:39:21.575Z,19.38
2022-08-26T17:41:51.726Z,19.29
2022-08-26T17:44:19.561Z,19.23
2022-08-26T17:46:49.565Z,19.19
2022-08-26T17:49:19.639Z,18.97
2022-08-26T17:51:47.436Z,19.00
2022-08-26T17:54:18.789Z,18.94
2022-08-26T17:56:46.636Z,18.95
2022-08-26T17:59:14.404Z,18.78
2022-08-26T18:01:44.189Z,18.80
2022-08-26T18:04:15.016Z,18.85
2022-08-26T18:06:43.359Z,18.75
2022-08-26T18:09:14.042Z,18.70
2022-08-26T18:11:45.042Z,18.60
2022-08-26T18:14:12.870Z,18.69
2022-08-26T18:16:43.945Z,18.56
2022-08-26T18:19:14.105Z,18.41
2022-08-26T18:21:41.898Z,18.45
2022-08-26T18:24:13.937Z,18.16
2022-08-26T18:26:48.947Z,17.93
2022-08-26T18:29:20.100Z,17.87
2022-08-26T18:31:50.168Z,17.46
2022-08-26T18:34:19.421Z,17.31
2022-08-26T18:36:49.348Z,17.18
2022-08-26T18:39:19.671Z,17.11
2022-08-26T18:41:55.402Z,17.00
2022-08-26T18:44:24.348Z,17.09
2022-08-26T18:46:52.964Z,17.28
2022-08-26T18:49:23.736Z,17.19
2022-08-26T18:51:54.728Z,17.22
2022-08-26T18:54:23.021Z,17.13
2022-08-26T18:56:52.444Z,17.30
2022-08-26T18:59:20.549Z,17.15
2022-08-26T19:01:57.956Z,17.20
2022-08-26T19:04:28.545Z,17.22
2022-08-26T19:06:56.843Z,17.16
2022-08-26T19:09:26.467Z,16.86
2022-08-26T19:11:58.915Z,16.66
2022-08-26T19:14:29.610Z,16.43
2022-08-26T19:16:57.634Z,16.30
2022-08-26T19:19:25.660Z,16.17
2022-08-26T19:21:55.968Z,16.07
2022-08-26T19:24:27.308Z,15.99
2022-08-26T19:27:00.422Z,15.91
2022-08-26T19:29:31.121Z,15.89
2022-08-26T19:31:59.329Z,15.93
2022-08-26T19:34:28.182Z,15.92
2022-08-26T19:36:58.530Z,15.89
2022-08-26T19:39:26.354Z,15.89
2022-08-26T19:41:54.429Z,15.80
2022-08-26T19:44:53.681Z,15.80
2022-08-26T19:47:24.181Z,15.79
2022-08-26T19:49:55.382Z,15.82
2022-08-26T19:52:23.826Z,15.76
2022-08-26T19:55:03.492Z,15.76
2022-08-26T19:57:31.515Z,15.69
2022-08-26T20:00:01.278Z,15.69
2022-08-26T20:02:29.727Z,15.74
2022-08-26T20:04:58.023Z,15.73
2022-08-26T20:07:28.441Z,15.74
2022-08-26T20:09:56.379Z,15.73
2022-08-26T20:12:24.920Z,15.62
2022-08-26T20:14:52.842Z,15.73
2022-08-26T20:17:24.671Z,15.73
2022-08-26T20:20:14.705Z,15.78
2022-08-26T20:23:00.495Z,15.79
2022-08-26T20:25:28.452Z,15.81
2022-08-26T20:27:56.388Z,16.16
2022-08-26T20:30:24.747Z,16.35
2022-08-26T20:32:54.311Z,16.34
2022-08-26T20:35:22.811Z,16.43
2022-08-26T20:37:55.048Z,16.34
2022-08-26T20:40:23.294Z,16.32
2022-08-26T20:42:51.716Z,16.26
2022-08-26T20:45:24.024Z,16.39
2022-08-26T20:47:53.291Z,16.40
2022-08-26T20:50:21.462Z,16.39
2022-08-26T20:52:53.516Z,16.19
2022-08-26T20:55:21.526Z,16.17
2022-08-26T20:57:49.886Z,16.03
2022-08-26T21:00:26.582Z,16.09
2022-08-26T21:02:58.283Z,16.01
2022-08-26T21:05:28.405Z,16.03
2022-08-26T21:07:58.445Z,15.98
2022-08-26T21:10:31.291Z,15.98
2022-08-26T21:12:59.417Z,16.10
2022-08-26T21:15:27.395Z,16.30
2022-08-26T21:17:57.328Z,16.53
2022-08-26T21:20:28.845Z,16.72
2022-08-26T21:22:59.435Z,16.82
2022-08-26T21:25:27.604Z,16.88
2022-08-26T21:27:55.731Z,16.78
2022-08-26T21:30:26.016Z,16.96
2022-08-26T21:32:53.945Z,17.08
2022-08-26T21:35:21.870Z,17.13
2022-08-26T21:37:55.552Z,17.16
2022-08-26T21:40:23.642Z,17.16
2022-08-26T21:42:51.817Z,17.10
2022-08-26T21:45:24.366Z,17.09
2022-08-26T21:47:52.300Z,17.09
2022-08-26T21:50:20.461Z,17.32
2022-08-26T21:52:54.176Z,17.36
2022-08-26T21:55:22.115Z,17.28
2022-08-26T21:57:50.098Z,17.28
2022-08-26T22:00:22.749Z,17.27
2022-08-26T22:02:50.608Z,17.21
2022-08-26T22:05:18.835Z,17.16
2022-08-26T22:07:51.153Z,17.17
2022-08-26T22:10:20.609Z,17.17
2022-08-26T22:12:48.726Z,17.26
2022-08-26T22:15:19.146Z,17.25
2022-08-26T22:17:46.989Z,17.41
2022-08-26T22:20:16.697Z,17.38
2022-08-26T22:22:49.042Z,17.33
2022-08-26T22:25:20.646Z,17.28
2022-08-26T22:27:48.576Z,17.22
2022-08-26T22:30:18.605Z,17.16
2022-08-26T22:32:48.749Z,17.04
2022-08-26T22:35:28.215Z,17.14
2022-08-26T22:38:02.601Z,17.26
2022-08-26T22:40:32.051Z,17.25
2022-08-26T22:43:00.475Z,17.37
2022-08-26T22:45:33.047Z,17.42
2022-08-26T22:48:04.671Z,17.39
2022-08-26T22:50:36.986Z,17.45
2022-08-26T22:53:05.505Z,17.41
2022-08-26T22:55:36.704Z,17.24
2022-08-26T22:58:07.052Z,17.06
2022-08-26T23:00:35.162Z,16.90
2022-08-26T23:03:05.358Z,16.90
2022-08-26T23:05:33.575Z,16.90
2022-08-26T23:08:01.487Z,16.94
2022-08-26T23:10:34.693Z,17.13
2022-08-26T23:13:04.497Z,17.35
2022-08-26T23:15:35.012Z,17.29
2022-08-26T23:18:05.517Z,17.19
2022-08-26T23:20:33.646Z,17.33
2022-08-26T23:23:03.878Z,17.55
2022-08-26T23:25:34.446Z,17.65
2022-08-26T23:28:04.201Z,17.62
2022-08-26T23:30:34.543Z,17.56
2022-08-26T23:33:04.226Z,17.57
2022-08-26T23:35:31.359Z,17.46
2022-08-26T23:38:02.460Z,17.56
2022-08-26T23:40:38.580Z,17.52
2022-08-26T23:43:12.575Z,17.56
2022-08-26T23:45:42.898Z,17.58
2022-08-26T23:48:12.752Z,17.76
2022-08-26T23:51:00.160Z,17.82
2022-08-26T23:53:30.325Z,17.93
2022-08-26T23:56:00.521Z,18.08
2022-08-26T23:58:31.868Z,18.08
